Date,TemperatureHighF,TemperatureAvgF,TemperatureLowF,DewpointHighF,DewpointAvgF,DewpointLowF,HumidityHigh,HumidityAvg,HumidityLow,PressureMaxIn,PressureMinIn,WindSpeedMaxMPH,WindSpeedAvgMPH,GustSpeedMaxMPH,PrecipitationSumIn
2013-4-1,61,46,40,43,38,17,96,77,31,29.69,29.62,4,1,12,0.01
2013-4-2,45,33,25,14,6,-1,50,32,20,29.99,29.85,4,1,8,0.00
2013-4-6,60,41,28,23,12,2,61,34,18,30.22,29.95,3,1,8,0.00
2013-4-7,62,46,32,41,31,21,77,57,26,30.21,29.93,7,3,13,0.00
2013-4-8,79,60,46,46,40,33,79,52,20,30.04,29.94,3,1,8,0.00
2013-4-9,87,70,57,51,42,29,72,42,14,29.98,29.90,4,1,10,0.00
2013-4-10,86,65,54,57,51,43,99,64,34,29.94,29.80,4,1,9,0.54
2013-4-11,60,53,42,57,49,40,99,90,61,29.99,29.78,2,1,8,0.01
2013-4-12,42,39,36,42,38,35,99,96,80,29.96,29.67,7,3,11,0.30
2013-4-13,60,46,36,43,36,31,99,73,36,29.88,29.72,3,1,11,0.02
2013-4-15,62,47,38,37,29,24,75,51,32,30.30,30.16,4,1,8,0.00
2013-4-16,68,55,43,54,47,37,94,75,55,30.30,30.09,5,2,11,0.00
2013-4-17,77,60,49,55,38,23,93,51,16,30.26,30.10,3,1,6,0.00
2013-4-18,55,50,46,51,42,36,99,76,49,30.28,30.06,4,1,15,0.00
2013-4-19,76,62,52,65,58,51,99,90,60,30.06,29.64,6,3,14,0.61
2013-4-20,60,48,39,51,32,19,99,58,25,30.26,29.69,4,2,13,0.11
2013-4-21,61,43,30,22,18,12,64,40,19,30.54,30.26,3,1,8,0.00
2013-4-22,55,44,34,34,27,20,75,53,39,30.58,30.44,3,1,8,0.00
2013-4-23,48,41,34,39,34,28,89,78,70,30.41,30.08,2,1,5,0.00
2013-4-24,72,55,38,53,45,35,94,72,43,30.08,29.79,6,2,12,0.00
2013-4-25,69,53,39,53,27,17,88,42,14,30.23,29.85,4,2,8,0.01
2013-4-26,70,54,43,35,26,18,64,38,15,30.37,30.22,2,1,5,0.00
2013-4-27,77,54,40,30,27,20,63,39,14,30.38,30.25,2,1,8,0.00
2013-4-28,71,58,45,40,34,26,63,42,26,30.26,30.15,6,2,9,0.00
2013-4-29,52,49,48,48,46,36,99,90,53,30.20,30.13,3,1,9,0.13
2013-4-30,70,54,47,51,37,19,99,62,20,30.30,30.16,3,0,7,0.02